Time;durP1;ratioP1;P1;durP2;ratioP2;P2;SDS_P1;SDS_P2;PMS_P1;PMS_P2;Temp;Humidity;BMP_temperature;BMP_pressure;BME280_temperature;BME280_humidity;BME280_pressure;Samples;Min_cycle;Max_cycle;Signal;HPM_P1;HPM_P2
2020/12/11 00:00:21;;;;;;;39.05;26.90;;;;;;;1.93;83.95;99810.66;1640106;87;25799;-78
2020/12/11 00:02:47;;;;;;;45.35;28.87;;;;;;;1.89;83.90;99805.42;1643678;86;26252;-78
2020/12/11 00:05:14;;;;;;;46.35;29.07;;;;;;;1.92;83.95;99806.94;1641711;86;26311;-78
2020/12/11 00:07:41;;;;;;;44.65;27.55;;;;;;;1.89;83.95;99805.42;1639921;87;25839;-78
2020/12/11 00:10:11;;;;;;;39.95;27.42;;;;;;;1.89;83.99;99800.75;1639697;86;25781;-78
2020/12/11 00:12:38;;;;;;;39.95;26.77;;;;;;;1.88;83.95;99810.24;1644244;86;26288;-78
2020/12/11 00:15:10;;;;;;;36.63;24.75;;;;;;;1.87;84.01;99807.30;1644381;85;25825;-78
2020/12/11 00:17:37;;;;;;;35.58;25.72;;;;;;;1.88;84.01;99809.40;1618377;88;25799;-78
2020/12/11 00:20:05;;;;;;;39.42;25.80;;;;;;;1.89;84.08;99808.00;1622195;87;25898;-77
2020/12/11 00:22:32;;;;;;;34.63;24.20;;;;;;;1.94;84.10;99808.45;1640299;87;25764;-78
2020/12/11 00:24:59;;;;;;;37.30;26.00;;;;;;;1.96;84.06;99813.02;1643288;87;26351;-78
2020/12/11 00:27:25;;;;;;;39.25;26.68;;;;;;;2.00;84.06;99808.43;1641135;86;25955;-78
2020/12/11 00:29:52;;;;;;;43.58;26.93;;;;;;;2.03;84.12;99808.66;1635837;87;26283;-78
2020/12/11 00:32:18;;;;;;;34.55;26.30;;;;;;;2.06;84.10;99805.83;1640956;87;25721;-78
2020/12/11 00:34:44;;;;;;;42.67;27.60;;;;;;;2.07;84.00;99813.89;1642498;87;25760;-78
2020/12/11 00:37:12;;;;;;;40.63;27.22;;;;;;;2.03;83.93;99812.05;1643078;87;25684;-78
2020/12/11 00:39:38;;;;;;;43.38;28.30;;;;;;;2.02;83.95;99814.73;1639904;87;25893;-78
2020/12/11 00:42:04;;;;;;;34.83;24.80;;;;;;;1.97;83.92;99815.94;1639371;85;25878;-78
2020/12/11 00:44:30;;;;;;;40.78;26.45;;;;;;;1.93;83.90;99822.27;1642635;86;25963;-78
2020/12/11 00:47:04;;;;;;;41.08;26.42;;;;;;;1.92;83.98;99823.69;1639036;87;25744;-78
2020/12/11 00:49:31;;;;;;;36.35;24.87;;;;;;;1.93;84.03;99827.89;1641529;85;26328;-78
2020/12/11 00:51:57;;;;;;;38.25;26.48;;;;;;;1.93;83.96;99829.99;1639002;86;25682;-78
2020/12/11 00:54:25;;;;;;;36.35;25.72;;;;;;;1.93;83.96;99829.99;1640240;87;25800;-80
2020/12/11 00:56:52;;;;;;;37.88;25.37;;;;;;;1.95;84.17;99834.56;1640458;87;25752;-78
2020/12/11 00:59:18;;;;;;;36.73;25.55;;;;;;;1.98;84.22;99835.60;1636608;86;26312;-78
2020/12/11 01:01:45;;;;;;;38.92;25.45;;;;;;;2.00;84.23;99831.15;1639835;86;26432;-78
2020/12/11 01:04:11;;;;;;;38.67;25.82;;;;;;;2.03;84.12;99831.85;1638243;87;26419;-78
2020/12/11 01:06:38;;;;;;;34.00;23.22;;;;;;;2.02;84.01;99832.77;1642487;86;25748;-78
2020/12/11 01:09:05;;;;;;;31.95;23.25;;;;;;;2.06;84.39;99839.33;1638669;86;25770;-78
2020/12/11 01:11:32;;;;;;;35.28;25.62;;;;;;;1.99;84.33;99812.77;1641848;87;25804;-79
2020/12/11 01:13:58;;;;;;;38.08;26.95;;;;;;;2.04;83.78;99810.28;1637268;87;26315;-79
2020/12/11 01:16:26;;;;;;;35.03;25.72;;;;;;;2.04;83.78;99810.28;1641033;87;26466;-80
2020/12/11 01:18:52;;;;;;;37.98;26.00;;;;;;;2.14;84.04;99830.52;1642899;87;25760;-80
2020/12/11 01:21:19;;;;;;;37.55;26.30;;;;;;;2.10;83.98;99829.95;1639199;87;25772;-80
2020/12/11 01:23:45;;;;;;;37.38;26.85;;;;;;;2.11;84.05;99828.19;1640034;87;26023;-80
2020/12/11 01:26:11;;;;;;;38.42;25.43;;;;;;;2.08;84.00;99825.38;1623963;85;25883;-80
2020/12/11 01:28:38;;;;;;;33.40;23.65;;;;;;;2.05;84.00;99831.27;1637489;87;25693;-81
2020/12/11 01:31:04;;;;;;;38.30;25.25;;;;;;;2.05;84.08;99832.55;1635108;85;25721;-80
2020/12/11 01:33:30;;;;;;;41.18;25.82;;;;;;;2.02;84.02;99829.75;1620485;86;25766;-80
2020/12/11 01:35:56;;;;;;;34.95;23.40;;;;;;;2.04;84.10;99820.59;1643751;87;26315;-80
2020/12/11 01:38:23;;;;;;;32.83;24.37;;;;;;;2.07;84.01;99825.49;1641002;87;25685;-79
2020/12/11 01:40:49;;;;;;;30.75;22.40;;;;;;;2.09;84.09;99830.06;1640902;86;25815;-79
2020/12/11 01:43:20;;;;;;;36.08;23.83;;;;;;;2.10;84.06;99836.39;1648184;86;26499;-80
2020/12/11 01:45:48;;;;;;;36.45;25.52;;;;;;;2.12;84.03;99833.67;1647787;86;25738;-80
2020/12/11 01:48:15;;;;;;;37.38;25.17;;;;;;;2.10;83.96;99836.84;1648380;86;25802;-80
2020/12/11 01:50:42;;;;;;;38.02;25.60;;;;;;;2.10;84.06;99829.95;1649453;86;25269;-80
2020/12/11 01:53:09;;;;;;;37.67;25.80;;;;;;;2.11;83.77;99829.00;1649052;86;25725;-80
2020/12/11 01:55:38;;;;;;;39.18;25.35;;;;;;;2.11;83.77;99829.00;1647787;86;26442;-80
2020/12/11 01:58:13;;;;;;;36.08;25.17;;;;;;;2.12;84.18;99829.81;1649279;85;26457;-78
2020/12/11 02:00:42;;;;;;;34.75;24.45;;;;;;;2.10;84.10;99827.38;1649170;86;26270;-78
2020/12/11 02:03:11;;;;;;;32.90;23.98;;;;;;;2.09;84.14;99829.59;1648333;86;25803;-78
2020/12/11 02:05:38;;;;;;;34.08;22.82;;;;;;;2.11;84.18;99823.84;1648969;86;26029;-78
2020/12/11 02:08:05;;;;;;;31.90;23.10;;;;;;;2.09;84.08;99816.70;1651274;85;25937;-77
2020/12/11 02:10:32;;;;;;;35.70;24.07;;;;;;;1.97;83.85;99808.68;1646346;86;26027;-78
2020/12/11 02:13:09;;;;;;;31.75;22.17;;;;;;;1.97;83.85;99808.68;1634885;86;25742;-77
2020/12/11 02:15:35;;;;;;;34.78;23.52;;;;;;;2.10;84.11;99821.38;1649622;86;25917;-77
2020/12/11 02:18:03;;;;;;;35.20;25.75;;;;;;;2.12;84.12;99816.92;1650716;86;25760;-78
2020/12/11 02:20:30;;;;;;;33.92;23.77;;;;;;;2.15;84.14;99819.25;1646931;86;25762;-78
2020/12/11 02:22:56;;;;;;;36.95;26.25;;;;;;;2.16;84.11;99818.33;1646192;86;25799;-78
2020/12/11 02:25:23;;;;;;;37.40;26.48;;;;;;;2.15;83.95;99823.11;1645227;86;25852;-78
2020/12/11 02:27:49;;;;;;;36.30;26.07;;;;;;;2.15;83.95;99823.11;1646201;86;25696;-78
2020/12/11 02:30:19;;;;;;;40.75;25.88;;;;;;;2.14;84.16;99811.99;1644449;86;25771;-78
2020/12/11 02:32:45;;;;;;;37.67;24.15;;;;;;;2.12;84.13;99813.05;1648205;86;26384;-78
2020/12/11 02:35:12;;;;;;;38.63;26.02;;;;;;;2.10;84.19;99814.93;1648820;86;26716;-77
2020/12/11 02:37:39;;;;;;;33.50;23.95;;;;;;;2.08;84.16;99807.82;1647157;86;25799;-78
2020/12/11 02:40:07;;;;;;;35.35;24.20;;;;;;;2.06;84.20;99809.70;1649706;86;26308;-77
2020/12/11 02:42:35;;;;;;;33.67;24.85;;;;;;;2.04;84.19;99799.49;1649291;86;25702;-77
2020/12/11 02:45:01;;;;;;;33.75;24.15;;;;;;;2.05;84.23;99800.34;1646229;86;25844;-77
2020/12/11 02:47:32;;;;;;;34.23;24.30;;;;;;;2.03;84.24;99794.00;1640843;85;25917;-78
2020/12/11 02:49:56;;;;;;;35.45;25.27;;;;;;;2.05;84.32;99793.89;1651991;85;26706;-78
2020/12/11 02:52:22;;;;;;;33.42;24.60;;;;;;;2.04;84.25;99794.81;1645442;86;25902;-78
2020/12/11 02:54:48;;;;;;;35.95;24.15;;;;;;;2.04;84.30;99790.48;1625472;88;25902;-78
2020/12/11 02:57:15;;;;;;;37.98;25.02;;;;;;;2.04;84.31;99794.81;1626747;85;26558;-78
2020/12/11 02:59:41;;;;;;;36.00;25.90;;;;;;;2.03;84.31;99794.00;1646044;85;26364;-78
2020/12/11 03:02:07;;;;;;;37.28;24.90;;;;;;;2.04;84.40;99784.03;1645976;86;25323;-78
2020/12/11 03:04:34;;;;;;;34.55;25.75;;;;;;;2.08;84.10;99779.47;1642529;86;25907;-78
2020/12/11 03:07:00;;;;;;;34.10;24.98;;;;;;;2.08;84.10;99779.47;1644188;86;25715;-78
2020/12/11 03:09:26;;;;;;;35.40;25.17;;;;;;;2.10;84.47;99777.11;1641794;86;25865;-78
2020/12/11 03:11:53;;;;;;;35.45;25.15;;;;;;;2.10;84.40;99782.27;1643442;86;25776;-78
2020/12/11 03:14:19;;;;;;;33.98;25.12;;;;;;;2.07;84.33;99783.78;1641555;86;25870;-78
2020/12/11 03:16:45;;;;;;;35.20;24.90;;;;;;;2.03;84.23;99787.56;1649747;85;25810;-77
2020/12/11 03:19:12;;;;;;;35.88;23.83;;;;;;;2.03;84.38;99781.59;1646086;85;25811;-76
2020/12/11 03:21:38;;;;;;;33.78;25.15;;;;;;;2.05;84.44;99790.03;1642222;86;25759;-76
2020/12/11 03:28:18;;;;;;;33.67;24.00;;;;;;;2.08;84.40;99788.48;1634399;86;25781;-79
2020/12/11 03:30:44;;;;;;;30.57;22.13;;;;;;;2.07;84.41;99788.13;1628591;85;25772;-77
2020/12/11 03:33:49;;;;;;;34.90;23.07;;;;;;;2.04;84.38;99788.37;1650942;86;25685;-78
2020/12/11 03:36:19;;;;;;;31.40;22.75;;;;;;;1.94;84.57;99770.28;1648323;86;26401;-77
2020/12/11 03:38:45;;;;;;;;;;;;;;;1.94;84.57;99770.28;1644519;86;25851;-77
2020/12/11 03:41:16;;;;;;;32.97;23.33;;;;;;;2.04;84.50;99785.80;1651165;85;34945;-78
2020/12/11 03:43:42;;;;;;;31.97;21.93;;;;;;;2.05;84.61;99790.84;1645256;86;26338;-78
2020/12/11 03:46:10;;;;;;;32.45;21.77;;;;;;;2.04;84.62;99784.03;1646910;85;26435;-78
2020/12/11 03:48:39;;;;;;;29.30;21.48;;;;;;;2.08;84.54;99794.45;1651424;85;26622;-78
2020/12/11 03:51:05;;;;;;;31.10;22.65;;;;;;;2.03;84.49;99801.73;1669946;85;25780;-78
2020/12/11 03:53:31;;;;;;;29.40;20.85;;;;;;;2.03;84.49;99801.73;1651386;85;26418;-79
2020/12/11 03:55:57;;;;;;;30.50;22.05;;;;;;;2.02;84.56;99809.13;1647700;86;25830;-78
2020/12/11 03:58:24;;;;;;;30.48;22.10;;;;;;;2.02;84.59;99803.98;1645966;85;25833;-78
2020/12/11 04:00:50;;;;;;;30.20;21.95;;;;;;;2.04;84.62;99806.41;1645102;86;26406;-78
2020/12/11 04:03:17;;;;;;;32.63;21.62;;;;;;;2.03;84.60;99810.76;1647446;85;25884;-78
2020/12/11 04:05:44;;;;;;;29.90;21.85;;;;;;;2.04;84.66;99808.99;1633198;86;25716;-78
2020/12/11 04:08:10;;;;;;;33.95;21.42;;;;;;;2.05;84.58;99812.75;1650602;86;26432;-78
2020/12/11 04:10:36;;;;;;;28.30;21.37;;;;;;;1.94;84.94;99793.00;1647261;85;25900;-78
2020/12/11 04:13:02;;;;;;;30.80;22.13;;;;;;;1.94;84.94;99793.00;1673921;84;27283;-78
2020/12/11 04:15:29;;;;;;;32.40;21.40;;;;;;;2.06;84.64;99820.00;1645299;86;25767;-78
2020/12/11 04:17:55;;;;;;;33.98;22.67;;;;;;;2.05;84.57;99820.48;1650168;85;26613;-78
2020/12/11 04:20:22;;;;;;;30.43;21.82;;;;;;;2.03;84.61;99818.97;1644897;86;25823;-78
2020/12/11 04:22:48;;;;;;;31.48;22.80;;;;;;;2.06;84.77;99814.85;1647087;85;26295;-78
2020/12/11 04:25:22;;;;;;;31.30;21.65;;;;;;;2.09;84.78;99815.41;1647401;84;25893;-78
2020/12/11 04:27:48;;;;;;;31.70;22.85;;;;;;;2.10;84.68;99809.78;1647031;86;26406;-77
2020/12/11 04:30:14;;;;;;;32.98;22.20;;;;;;;2.09;84.67;99811.55;1642488;85;25745;-78
2020/12/11 04:32:41;;;;;;;32.35;22.62;;;;;;;2.09;84.62;99819.75;1646653;86;25663;-78
2020/12/11 04:35:07;;;;;;;37.30;23.92;;;;;;;2.07;84.64;99812.13;1645842;86;25717;-78
2020/12/11 04:37:33;;;;;;;33.78;23.12;;;;;;;2.09;84.73;99818.46;1642399;86;26292;-78
2020/12/11 04:40:00;;;;;;;34.38;24.02;;;;;;;2.09;84.79;99815.89;1643821;86;25815;-78
2020/12/11 04:42:27;;;;;;;31.70;24.05;;;;;;;2.13;84.83;99825.02;1647112;85;25909;-78
2020/12/11 04:44:53;;;;;;;35.05;25.00;;;;;;;2.13;84.70;99817.29;1644237;86;25747;-78
2020/12/11 04:47:32;;;;;;;36.58;24.45;;;;;;;2.10;84.71;99818.35;1671505;85;25812;-77
2020/12/11 04:49:58;;;;;;;39.13;25.85;;;;;;;2.06;84.55;99823.39;1621001;87;25934;-78
2020/12/11 04:52:28;;;;;;;38.95;25.25;;;;;;;2.04;84.68;99819.30;1599361;86;26371;-78
2020/12/11 04:54:58;;;;;;;37.70;25.12;;;;;;;2.00;84.61;99821.31;1624403;87;25745;-78
2020/12/11 04:57:26;;;;;;;38.38;26.77;;;;;;;2.00;84.81;99817.45;1625894;86;26368;-78
2020/12/11 04:59:53;;;;;;;44.05;28.70;;;;;;;2.00;84.81;99814.88;1624600;87;25799;-78
2020/12/11 05:02:19;;;;;;;42.62;30.37;;;;;;;1.97;84.73;99815.94;1624691;87;26607;-78
2020/12/11 05:04:45;;;;;;;40.35;28.32;;;;;;;1.99;84.92;99816.64;1600448;87;25893;-78
2020/12/11 05:07:12;;;;;;;42.60;29.05;;;;;;;2.03;85.01;99815.10;1625679;87;26506;-78
2020/12/11 05:09:39;;;;;;;47.73;30.08;;;;;;;1.97;85.07;99798.38;1624729;86;25740;-78
2020/12/11 05:12:14;;;;;;;42.17;28.15;;;;;;;1.97;85.07;99798.38;1626217;87;25885;-78
2020/12/11 05:14:40;;;;;;;37.93;26.80;;;;;;;1.97;84.94;99804.81;1614948;86;26437;-78
2020/12/11 05:17:07;;;;;;;39.60;26.82;;;;;;;2.09;84.97;99818.46;1626244;87;26370;-78
2020/12/11 05:19:52;;;;;;;44.30;28.40;;;;;;;2.08;84.89;99825.38;1619534;87;26098;-78
2020/12/11 05:22:20;;;;;;;37.75;26.07;;;;;;;2.06;84.82;99827.26;1626839;86;26002;-78
2020/12/11 05:24:52;;;;;;;40.52;26.48;;;;;;;2.03;84.86;99825.41;1625765;86;25709;-78
2020/12/11 05:27:32;;;;;;;38.10;26.07;;;;;;;2.04;85.00;99828.33;1626567;86;26414;-78
2020/12/11 05:30:09;;;;;;;39.38;25.37;;;;;;;2.04;85.00;99830.42;1622685;87;25710;-78
2020/12/11 05:32:53;;;;;;;38.78;26.62;;;;;;;2.08;85.07;99836.17;1624639;86;25795;-78
2020/12/11 05:35:28;;;;;;;37.23;24.20;;;;;;;2.10;85.08;99837.69;1623993;87;25728;-78
2020/12/11 05:38:04;;;;;;;34.85;24.20;;;;;;;2.10;85.03;99836.39;1623606;86;25759;-78
2020/12/11 05:40:38;;;;;;;38.58;24.77;;;;;;;2.11;85.07;99836.73;1625398;87;25753;-78
2020/12/11 05:43:16;;;;;;;38.42;26.10;;;;;;;2.12;85.01;99842.22;1621072;87;26298;-78
2020/12/11 05:45:55;;;;;;;39.18;27.10;;;;;;;2.11;84.95;99846.23;1625595;86;26432;-78
2020/12/11 05:48:28;;;;;;;45.30;30.77;;;;;;;2.09;85.00;99845.53;1627835;86;26371;-78
2020/12/11 05:50:54;;;;;;;45.73;30.40;;;;;;;2.07;85.03;99844.34;1644073;86;25679;-77
2020/12/11 05:53:21;;;;;;;46.23;28.95;;;;;;;2.08;85.02;99839.56;1629433;86;26542;-77
2020/12/11 05:55:48;;;;;;;49.95;32.67;;;;;;;2.09;85.05;99845.53;1645118;85;26320;-78
2020/12/11 05:58:17;;;;;;;49.05;33.67;;;;;;;2.10;84.97;99847.16;1646655;86;25855;-78
2020/12/11 06:00:44;;;;;;;44.80;31.48;;;;;;;2.10;84.97;99847.16;1647356;84;25662;-78
2020/12/11 06:03:10;;;;;;;45.10;30.90;;;;;;;2.08;85.02;99847.77;1646647;85;25705;-78
2020/12/11 06:05:39;;;;;;;42.83;27.90;;;;;;;2.07;85.00;99851.27;1630221;86;25852;-78
2020/12/11 06:08:11;;;;;;;46.48;29.87;;;;;;;2.05;85.03;99846.25;1651612;86;25850;-78
2020/12/11 06:10:40;;;;;;;40.73;29.15;;;;;;;2.04;85.17;99851.05;1633544;86;25838;-78
2020/12/11 06:13:07;;;;;;;46.02;30.45;;;;;;;2.04;85.17;99851.05;1649020;86;25879;-77
2020/12/11 06:15:47;;;;;;;42.25;28.75;;;;;;;1.98;85.30;99834.31;1668405;85;25687;-78
2020/12/11 06:18:25;;;;;;;41.95;29.77;;;;;;;1.98;85.30;99834.31;1633173;86;25889;-78
2020/12/11 06:20:54;;;;;;;40.55;30.37;;;;;;;2.09;85.13;99852.78;1650760;85;25912;-78
2020/12/11 06:23:29;;;;;;;44.65;30.57;;;;;;;2.11;85.13;99847.52;1626987;87;25915;-78
2020/12/11 06:26:04;;;;;;;45.05;29.72;;;;;;;2.12;85.14;99850.44;1635290;86;25806;-78
2020/12/11 06:28:46;;;;;;;43.15;28.85;;;;;;;2.15;85.21;99854.86;1641347;86;25401;-78
2020/12/11 06:31:21;;;;;;;42.43;28.38;;;;;;;2.18;85.21;99853.80;1643457;86;26418;-77
2020/12/11 06:33:53;;;;;;;40.23;26.70;;;;;;;2.18;85.15;99858.95;1645109;86;25715;-77
2020/12/11 06:36:20;;;;;;;38.88;25.32;;;;;;;2.18;85.15;99862.38;1646370;85;26662;-78
2020/12/11 06:38:57;;;;;;;34.43;23.77;;;;;;;2.17;85.09;99862.48;1646757;85;25704;-78
2020/12/11 06:41:32;;;;;;;43.87;26.27;;;;;;;2.15;85.04;99856.15;1645099;86;25645;-78
2020/12/11 06:44:12;;;;;;;38.98;24.92;;;;;;;2.14;85.16;99853.23;1648545;86;26331;-78
2020/12/11 06:46:38;;;;;;;42.75;25.92;;;;;;;2.14;85.16;99853.23;1644681;85;25757;-78
2020/12/11 06:49:21;;;;;;;39.92;25.60;;;;;;;2.18;85.12;99858.95;1646272;84;25851;-78
2020/12/11 06:51:53;;;;;;;41.53;26.73;;;;;;;2.18;85.12;99858.95;1643835;86;26337;-78
2020/12/11 06:54:28;;;;;;;41.25;25.85;;;;;;;2.17;85.06;99863.30;1641395;86;25778;-78
2020/12/11 06:56:58;;;;;;;41.53;26.73;;;;;;;2.16;85.09;99861.67;1646466;86;25792;-78
2020/12/11 06:59:30;;;;;;;43.58;28.35;;;;;;;2.17;85.08;99856.04;1643579;86;25829;-78
2020/12/11 07:02:08;;;;;;;44.15;26.75;;;;;;;2.15;85.05;99855.34;1642708;86;25931;-79
2020/12/11 07:04:46;;;;;;;43.55;26.05;;;;;;;2.13;85.07;99853.38;1643812;86;26486;-78
2020/12/11 07:07:14;;;;;;;42.55;27.20;;;;;;;2.14;85.17;99855.00;1648073;86;25820;-78
2020/12/11 07:09:46;;;;;;;47.15;27.55;;;;;;;2.17;85.33;99859.43;1647272;86;26444;-78
2020/12/11 07:12:16;;;;;;;43.25;25.65;;;;;;;2.19;85.26;99861.42;1647013;85;25817;-78
2020/12/11 07:14:44;;;;;;;50.80;29.20;;;;;;;2.18;85.21;99863.66;1650253;85;25710;-78
2020/12/11 07:17:10;;;;;;;52.10;28.30;;;;;;;2.17;85.20;99865.06;1651473;85;25841;-78
2020/12/11 07:19:38;;;;;;;53.70;27.70;;;;;;;2.18;85.32;99863.66;1650170;85;25871;-78
2020/12/11 07:22:06;;;;;;;43.70;25.35;;;;;;;2.16;85.19;99864.73;1652198;86;25688;-78
2020/12/11 07:24:33;;;;;;;51.40;29.15;;;;;;;2.16;85.28;99873.75;1650344;85;25857;-78
2020/12/11 07:27:05;;;;;;;51.75;28.62;;;;;;;2.14;85.34;99866.13;1650840;86;25886;-78
2020/12/11 07:29:32;;;;;;;46.08;26.12;;;;;;;2.10;85.19;99866.04;1654212;85;25709;-78
2020/12/11 07:31:59;;;;;;;54.40;27.95;;;;;;;2.10;85.19;99866.04;1645966;85;26303;-79
2020/12/11 07:34:28;;;;;;;50.75;29.05;;;;;;;2.08;85.32;99859.37;1645047;86;26282;-78
2020/12/11 07:36:58;;;;;;;51.92;30.15;;;;;;;2.09;85.46;99869.54;1649415;85;25637;-79
2020/12/11 07:39:28;;;;;;;60.47;31.80;;;;;;;2.13;85.59;99870.13;1650503;86;25768;-78
2020/12/11 07:41:55;;;;;;;53.68;31.12;;;;;;;2.15;85.52;99867.75;1646036;85;25835;-79
2020/12/11 07:44:29;;;;;;;57.50;31.48;;;;;;;2.15;85.46;99865.17;1647241;85;25568;-78
2020/12/11 07:47:01;;;;;;;57.03;32.00;;;;;;;2.15;85.48;99870.80;1647927;86;26463;-78
2020/12/11 07:49:44;;;;;;;55.65;31.68;;;;;;;2.16;85.53;99866.83;1636981;85;25930;-78
2020/12/11 07:52:12;;;;;;;66.70;33.48;;;;;;;2.17;85.64;99863.30;1619148;87;25706;-78
2020/12/11 07:54:41;;;;;;;55.28;31.60;;;;;;;2.14;85.45;99858.39;1621365;87;25787;-78
2020/12/11 07:57:19;;;;;;;57.17;31.35;;;;;;;2.18;85.74;99857.22;1623419;87;26210;-78
2020/12/11 08:00:05;;;;;;;79.60;46.35;;;;;;;2.18;85.74;99857.22;1621738;86;26688;-78
2020/12/11 08:02:34;;;;;;;81.22;47.05;;;;;;;2.18;85.53;99851.22;1621853;86;26373;-78
2020/12/11 08:05:06;;;;;;;86.45;46.75;;;;;;;2.18;85.53;99852.51;1626583;86;25827;-78
2020/12/11 08:07:33;;;;;;;128.35;81.60;;;;;;;2.19;85.56;99859.32;1631904;86;25921;-78
2020/12/11 08:10:12;;;;;;;141.88;88.67;;;;;;;2.22;85.59;99869.38;1631161;85;25828;-78
2020/12/11 08:12:39;;;;;;;79.22;47.48;;;;;;;2.22;85.59;99869.38;1623290;87;25801;-78
2020/12/11 08:15:07;;;;;;;66.45;39.92;;;;;;;2.19;85.44;99859.32;1621147;87;26271;-78
2020/12/11 08:17:34;;;;;;;58.73;32.42;;;;;;;2.13;85.43;99843.06;1617358;87;25683;-78
2020/12/11 08:36:28;;;;;;;63.47;33.47;;;;;;;2.41;85.66;99878.55;1793225;79;25796;-79
2020/12/11 08:39:21;;;;;;;70.25;39.58;;;;;;;2.35;85.60;99876.48;1763160;80;25859;-79
2020/12/11 08:42:13;;;;;;;70.92;42.55;;;;;;;2.28;85.41;99872.75;1748195;80;26474;-79
2020/12/11 08:49:54;;;;;;;60.38;32.90;;;;;;;2.30;85.65;99859.27;1762046;80;25789;-79
2020/12/11 08:52:18;;;;;;;66.12;36.42;;;;;;;2.32;85.67;99853.97;1763058;80;26452;-79
2020/12/11 08:54:46;;;;;;;69.20;37.05;;;;;;;2.19;85.42;99829.20;1767162;80;25653;-80
2020/12/11 08:57:15;;;;;;;64.50;36.08;;;;;;;2.19;85.42;99829.20;1761988;80;26390;-79
2020/12/11 08:59:42;;;;;;;65.67;34.63;;;;;;;2.33;85.65;99842.26;1764309;80;26318;-79
2020/12/11 09:02:08;;;;;;;63.50;35.43;;;;;;;2.36;85.74;99836.03;1759006;80;25714;-80
2020/12/11 09:04:34;;;;;;;62.70;34.70;;;;;;;2.42;85.85;99838.10;1767801;80;25822;-80
2020/12/11 09:07:00;;;;;;;60.63;33.53;;;;;;;2.44;85.82;99834.45;1767504;79;25793;-80
2020/12/11 09:09:27;;;;;;;61.45;33.40;;;;;;;2.49;85.27;99830.70;1769211;80;25678;-80
2020/12/11 09:11:53;;;;;;;62.80;33.90;;;;;;;2.51;85.55;99836.08;1735242;81;26409;-80
2020/12/11 09:14:19;;;;;;;57.40;35.15;;;;;;;2.51;85.55;99836.08;1769848;80;25699;-79
2020/12/11 09:16:46;;;;;;;68.12;38.25;;;;;;;2.52;85.66;99832.55;1761688;80;25802;-80
2020/12/11 09:19:13;;;;;;;61.48;35.78;;;;;;;2.54;85.61;99831.95;1754383;80;25801;-79
2020/12/11 09:21:39;;;;;;;62.40;37.25;;;;;;;2.54;85.55;99835.01;1763467;80;25698;-79
2020/12/11 09:24:06;;;;;;;62.60;34.05;;;;;;;2.55;85.59;99834.87;1764129;80;25675;-79
2020/12/11 09:26:32;;;;;;;58.85;34.67;;;;;;;2.58;85.52;99832.03;1740100;80;25460;-79
2020/12/11 09:29:09;;;;;;;58.02;33.33;;;;;;;2.56;85.46;99830.52;1760010;80;25817;-80
2020/12/11 09:31:27;;;;;;;57.25;33.98;;;;;;;2.61;85.65;99831.77;1761303;79;27123;-80
2020/12/11 09:33:56;;;;;;;56.70;32.78;;;;;;;2.66;85.77;99825.77;1754041;80;25946;-79
2020/12/11 09:36:21;;;;;;;63.23;34.98;;;;;;;2.66;85.77;99825.77;1701012;80;25768;-79
2020/12/11 09:38:47;;;;;;;60.85;34.35;;;;;;;2.65;85.63;99820.75;1663660;83;25786;-79
2020/12/11 09:41:18;;;;;;;60.73;35.28;;;;;;;2.65;85.63;99820.75;1699758;82;25904;-79
2020/12/11 09:49:10;;;;;;;63.73;35.93;;;;;;;2.63;85.58;99813.13;1696736;82;25301;-80
2020/12/11 09:54:19;;;;;;;66.15;35.78;;;;;;;2.61;85.29;99800.81;1682770;82;25633;-77
2020/12/11 09:56:43;;;;;;;70.60;41.00;;;;;;;2.61;85.29;99800.81;1705995;82;25783;-78
2020/12/11 10:04:10;;;;;;;60.38;33.60;;;;;;;2.61;85.61;99796.95;1697497;82;26620;-78
2020/12/11 10:06:37;;;;;;;64.50;37.33;;;;;;;2.65;85.67;99793.18;1694634;82;26421;-78
2020/12/11 10:09:04;;;;;;;60.08;33.67;;;;;;;2.65;85.63;99785.44;1693798;82;25826;-78
2020/12/11 10:11:30;;;;;;;64.75;35.65;;;;;;;2.70;86.03;99785.52;1692259;82;26512;-79
2020/12/11 10:16:43;;;;;;;60.52;34.83;;;;;;;2.76;85.68;99782.44;1696562;82;25675;-78
2020/12/11 10:19:11;;;;;;;67.40;37.15;;;;;;;2.73;85.57;99782.67;1693630;83;25827;-78
2020/12/11 10:21:39;;;;;;;64.32;34.18;;;;;;;2.72;85.56;99787.02;1699176;82;25855;-77
2020/12/11 10:24:06;;;;;;;63.30;34.48;;;;;;;2.71;85.42;99784.59;1700508;82;25811;-78
2020/12/11 10:26:32;;;;;;;62.45;34.45;;;;;;;2.67;85.46;99789.16;1694859;82;26499;-78
2020/12/11 10:28:58;;;;;;;63.02;33.65;;;;;;;2.65;85.49;99797.53;1694206;82;25962;-80
2020/12/11 10:31:31;;;;;;;66.92;34.60;;;;;;;2.65;85.47;99796.23;1675755;83;25804;-81
2020/12/11 10:33:57;;;;;;;67.53;35.33;;;;;;;2.62;85.49;99790.05;1692393;82;26475;-78
2020/12/11 10:36:31;;;;;;;65.97;35.28;;;;;;;2.64;85.62;99785.55;1711252;82;26328;-80
2020/12/11 10:38:58;;;;;;;63.40;35.98;;;;;;;2.59;85.47;99786.41;1719918;81;25851;-78
2020/12/11 10:41:27;;;;;;;68.92;37.42;;;;;;;2.47;85.55;99762.94;1725682;81;25276;-78
2020/12/11 10:43:54;;;;;;;62.08;35.15;;;;;;;2.47;85.55;99762.94;1724499;81;26259;-78
2020/12/11 10:46:20;;;;;;;60.90;33.98;;;;;;;2.58;85.59;99779.14;1717452;81;26541;-78
2020/12/11 10:48:46;;;;;;;64.58;36.17;;;;;;;2.60;85.66;99771.30;1714950;81;25867;-79
2020/12/11 10:51:18;;;;;;;61.63;33.08;;;;;;;2.65;85.68;99782.05;1722559;81;26443;-79
2020/12/11 10:53:46;;;;;;;69.03;35.17;;;;;;;2.58;85.66;99755.12;1722161;81;26427;-79
2020/12/11 10:56:19;;;;;;;62.10;35.03;;;;;;;2.71;85.57;99774.27;1719681;81;26318;-78
2020/12/11 10:58:44;;;;;;;59.18;34.35;;;;;;;2.72;85.59;99774.12;1722029;81;25812;-78
2020/12/11 11:01:10;;;;;;;63.87;34.95;;;;;;;2.72;85.52;99768.15;1726364;81;25556;-79
2020/12/11 11:03:38;;;;;;;61.18;34.00;;;;;;;2.58;85.55;99753.35;1721827;81;25915;-78
2020/12/11 11:06:21;;;;;;;70.47;38.95;;;;;;;2.71;85.67;99775.08;1718371;81;26373;-78
2020/12/11 11:11:30;;;;;;;66.12;34.15;;;;;;;2.55;85.18;99756.19;1727697;81;26525;-78
2020/12/11 11:14:13;;;;;;;62.67;33.13;;;;;;;2.56;85.32;99776.34;1719075;81;25708;-77
2020/12/11 11:19:15;;;;;;;62.95;33.28;;;;;;;2.59;85.56;99777.38;1666757;84;25739;-80
2020/12/11 11:26:43;;;;;;;67.25;34.38;;;;;;;2.63;85.50;99772.32;1656130;84;25877;-78
2020/12/11 11:29:06;;;;;;;64.75;33.95;;;;;;;2.59;85.50;99773.06;1655754;84;25930;-77
2020/12/11 11:31:32;;;;;;;71.92;34.73;;;;;;;2.56;85.45;99770.71;1663335;85;25832;-77
2020/12/11 11:34:01;;;;;;;69.77;35.15;;;;;;;2.56;85.45;99774.58;1653814;84;26458;-78
2020/12/11 11:36:26;;;;;;;73.70;37.13;;;;;;;2.56;85.53;99764.74;1649856;84;26337;-78
2020/12/11 11:38:53;;;;;;;70.35;35.03;;;;;;;2.60;85.66;99764.84;1654415;84;25805;-78
2020/12/11 11:41:44;;;;;;;73.22;36.05;;;;;;;2.63;85.61;99771.03;1648214;85;26653;-77
2020/12/11 11:46:16;;;;;;;73.37;34.23;;;;;;;2.61;85.56;99758.25;1644641;85;25789;-80
2020/12/11 11:48:43;;;;;;;75.28;38.02;;;;;;;2.65;85.70;99765.28;1659552;85;26524;-80
2020/12/11 11:51:24;;;;;;;76.40;36.20;;;;;;;2.69;85.71;99769.22;1655432;85;25955;-80
2020/12/11 11:53:38;;;;;;;75.32;35.03;;;;;;;2.69;85.67;99765.83;1648380;84;26600;-78
2020/12/11 11:56:04;;;;;;;89.17;38.45;;;;;;;2.66;85.66;99763.84;1685183;81;25932;-77
2020/12/11 11:58:32;;;;;;;79.05;37.00;;;;;;;2.66;85.56;99749.66;1728946;81;25763;-78
2020/12/11 12:00:59;;;;;;;82.12;37.00;;;;;;;2.65;85.59;99748.03;1727647;81;26882;-77
2020/12/11 12:03:25;;;;;;;86.08;40.90;;;;;;;2.70;85.76;99751.52;1725861;81;25907;-77
2020/12/11 12:05:52;;;;;;;87.55;40.80;;;;;;;2.76;85.82;99753.58;1733383;81;25974;-77
2020/12/11 12:08:20;;;;;;;86.65;38.95;;;;;;;2.74;85.55;99745.14;1725850;81;25920;-77
2020/12/11 12:10:48;;;;;;;79.62;38.30;;;;;;;2.75;85.65;99744.66;1724050;81;26472;-77
2020/12/11 12:13:17;;;;;;;80.90;38.33;;;;;;;2.77;85.60;99740.20;1727736;81;26723;-77
2020/12/11 12:15:43;;;;;;;83.85;38.75;;;;;;;2.77;85.65;99751.33;1729021;81;25774;-77
2020/12/11 12:18:11;;;;;;;88.03;41.83;;;;;;;2.80;85.77;99745.91;1730165;81;25774;-77
2020/12/11 12:31:15;;;;;;;91.10;41.42;;;;;;;2.92;85.68;99730.31;1643851;85;25777;-79
2020/12/11 12:36:46;;;;;;;82.45;38.58;;;;;;;2.87;85.60;99732.02;1631271;85;25850;-79
2020/12/11 12:44:15;;;;;;;84.20;39.50;;;;;;;2.86;85.58;99730.37;1618211;86;25804;-79